Terminal Aerodrome Forecast
Issued by NWS

Home | Current Version | Previous Version | Text Only | Print | Product List | Glossary On
Versions: 1 2 3 4 5 6 7 8 9 10 11 12 13
000
FTUS44 KMOB 171735
TAFBFM
TAF
KBFM 171735Z 1718/1818 13004KT P6SM SKC
     FM180300 16003KT P6SM FEW050 BKN250
     FM180900 20004KT 4SM BR BKN025
     FM181400 21007KT P6SM BKN025=

USA.gov is the U.S. government's official web portal to all federal, state and local government web resources and services.